Time;durP1;ratioP1;P1;durP2;ratioP2;P2;SDS_P1;SDS_P2;PMS_P1;PMS_P2;Temp;Humidity;BMP_temperature;BMP_pressure;BME280_temperature;BME280_humidity;BME280_pressure;Samples;Min_cycle;Max_cycle;Signal;HPM_P1;HPM_P2
2023/05/13 00:01:22;;;;;;;;;;;;;;;14.00;100.00;99660.94;5037455;28;19917;-80
2023/05/13 00:03:47;;;;;;;;;;;;;;;13.98;100.00;99657.59;5037043;28;19932;-81
2023/05/13 00:06:12;;;;;;;;;;;;;;;13.95;100.00;99657.94;5035999;28;19916;-80
2023/05/13 00:08:37;;;;;;;;;;;;;;;13.90;100.00;99655.75;5036741;28;20416;-80
2023/05/13 00:11:03;;;;;;;;;;;;;;;13.88;100.00;99659.56;5037109;28;20329;-79
2023/05/13 00:13:28;;;;;;;;;;;;;;;13.88;100.00;99662.22;5036745;28;19958;-79
2023/05/13 00:15:54;;;;;;;;;;;;;;;13.79;100.00;99657.84;5036446;28;19925;-79
2023/05/13 00:18:19;;;;;;;;;;;;;;;13.81;100.00;99662.03;5036859;28;20389;-79
2023/05/13 00:20:44;;;;;;;;;;;;;;;13.81;100.00;99658.53;5036240;28;19917;-79
2023/05/13 00:23:10;;;;;;;;;;;;;;;13.83;100.00;99653.91;5036434;28;19917;-81
2023/05/13 00:25:36;;;;;;;;;;;;;;;13.83;100.00;99661.88;5036335;28;19925;-81
2023/05/13 00:28:01;;;;;;;;;;;;;;;13.77;100.00;99662.53;5046263;28;20277;-81
2023/05/13 00:30:26;;;;;;;;;;;;;;;13.73;100.00;99658.50;5037330;28;20336;-81
2023/05/13 00:32:52;;;;;;;;;;;;;;;13.67;100.00;99659.13;5035910;28;19921;-81
2023/05/13 00:35:20;;;;;;;;;;;;;;;13.64;100.00;99660.31;5036463;28;19917;-82
2023/05/13 00:37:45;;;;;;;;;;;;;;;13.59;100.00;99661.78;5035077;28;19917;-81
2023/05/13 00:40:15;;;;;;;;;;;;;;;13.55;100.00;99658.59;5036501;28;20000;-79
2023/05/13 00:42:42;;;;;;;2.92;2.72;;;;;;;13.38;100.00;99655.03;5041130;28;20405;-78
2023/05/13 00:45:07;;;;;;;;;;;;;;;13.33;100.00;99657.34;5035085;28;20026;-79
2023/05/13 00:47:32;;;;;;;;;;;;;;;13.26;100.00;99651.00;5035819;28;20358;-79
2023/05/13 00:49:58;;;;;;;;;;;;;;;13.22;100.00;99660.25;5036314;28;20059;-80
2023/05/13 00:52:23;;;;;;;;;;;;;;;13.21;100.00;99658.59;5036199;28;19949;-78
2023/05/13 00:54:48;;;;;;;;;;;;;;;13.18;100.00;99664.22;5035918;28;19917;-79
2023/05/13 00:57:14;;;;;;;;;;;;;;;13.13;100.00;99661.22;5036112;28;19917;-78
2023/05/13 00:59:39;;;;;;;;;;;;;;;13.15;100.00;99663.69;5034664;28;19917;-80
2023/05/13 01:02:04;;;;;;;;;;;;;;;13.15;100.00;99661.88;5033904;28;20037;-80
2023/05/13 01:04:33;;;;;;;;;;;;;;;13.11;100.00;99660.50;5034502;28;19923;-80
2023/05/13 01:07:01;;;;;;;;;;;;;;;13.11;100.00;99668.44;5036099;28;19917;-80
2023/05/13 01:09:37;;;;;;;;;;;;;;;13.05;100.00;99658.47;5033362;28;19931;-78
2023/05/13 01:12:07;;;;;;;;;;;;;;;13.00;100.00;99656.31;5041231;28;20024;-80
2023/05/13 01:14:35;;;;;;;;;;;;;;;12.99;100.00;99659.09;5024502;28;20004;-80
2023/05/13 01:17:06;;;;;;;;;;;;;;;12.98;100.00;99662.72;5024637;28;20021;-80
2023/05/13 01:19:41;;;;;;;;;;;;;;;12.97;100.00;99666.34;5028829;28;19921;-79
2023/05/13 01:22:07;;;;;;;;;;;;;;;12.90;100.00;99666.13;5034457;28;20337;-81
2023/05/13 01:24:34;;;;;;;;;;;;;;;12.84;100.00;99672.06;5048394;28;19948;-80
2023/05/13 01:26:59;;;;;;;;;;;;;;;12.90;100.00;99671.44;5033279;28;19952;-79
2023/05/13 01:29:25;;;;;;;;;;;;;;;12.90;100.00;99660.84;5063480;28;19924;-79
2023/05/13 01:31:52;;;;;;;;;;;;;;;12.91;100.00;99661.69;5031280;28;20340;-79
2023/05/13 01:34:21;;;;;;;;;;;;;;;12.86;100.00;99664.78;5031062;28;19917;-79
2023/05/13 01:36:47;;;;;;;;;;;;;;;12.89;100.00;99659.22;5030693;28;19960;-80
2023/05/13 01:39:15;;;;;;;;;;;;;;;12.91;100.00;99657.22;5039631;28;20375;-79
2023/05/13 01:41:41;;;;;;;;;;;;;;;12.88;100.00;99662.00;5030762;28;20274;-79
2023/05/13 01:44:07;;;;;;;;;;;;;;;12.90;100.00;99660.84;5046601;28;19917;-79
2023/05/13 01:46:32;;;;;;;;;;;;;;;12.91;100.00;99656.38;5031780;28;20671;-79
2023/05/13 01:48:58;;;;;;;;;;;;;;;12.90;100.00;99665.34;5055761;28;19917;-80
2023/05/13 01:51:23;;;;;;;;;;;;;;;12.91;100.00;99666.97;5020604;28;19917;-82
2023/05/13 01:53:54;;;;;;;;;;;;;;;12.86;100.00;99659.50;5021014;28;19924;-81
2023/05/13 01:56:21;;;;;;;;;;;;;;;12.87;100.00;99660.34;5020910;28;19964;-81
2023/05/13 01:58:47;;;;;;;;;;;;;;;12.83;100.00;99659.00;5020525;28;20004;-80
2023/05/13 02:01:13;;;;;;;;;;;;;;;12.85;100.00;99659.66;5021539;28;19964;-81
2023/05/13 02:03:38;;;;;;;;;;;;;;;12.86;100.00;99656.84;5020324;28;20014;-79
2023/05/13 02:06:04;;;;;;;;;;;;;;;12.90;100.00;99660.03;5022745;28;19924;-81
2023/05/13 02:08:29;;;;;;;;;;;;;;;12.91;100.00;99661.69;5020318;28;19999;-79
2023/05/13 02:10:58;;;;;;;;;;;;;;;12.89;100.00;99669.81;5021481;28;19917;-80
2023/05/13 02:13:24;;;;;;;;;;;;;;;12.88;100.00;99672.59;5022986;28;20353;-80
2023/05/13 02:15:49;;;;;;;;;;;;;;;12.93;100.00;99670.31;5030970;28;19967;-79
2023/05/13 02:18:15;;;;;;;;;;;;;;;12.93;100.00;99665.00;5028880;28;19961;-79
2023/05/13 02:20:40;;;;;;;;;;;;;;;12.96;100.00;99670.81;5028597;28;19947;-80
2023/05/13 02:23:06;;;;;;;;;;;;;;;12.98;100.00;99663.56;5031121;28;20284;-81
2023/05/13 02:25:32;;;;;;;;;;;;;;;12.96;100.00;99659.41;5038751;28;19951;-80
2023/05/13 02:27:58;;;;;;;;;;;;;;;12.98;100.00;99662.72;5030638;28;19917;-80
2023/05/13 02:30:25;;;;;;;;;;;;;;;12.94;100.00;99661.38;5031714;28;19924;-80
2023/05/13 02:32:52;;;;;;;;;;;;;;;12.91;100.00;99661.69;5029892;28;19928;-82
2023/05/13 02:35:17;;;;;;;;;;;;;;;12.90;100.00;99660.03;5058045;28;19946;-81
2023/05/13 02:37:43;;;;;;;;;;;;;;;12.88;100.00;99664.66;5022573;28;19917;-79
2023/05/13 02:40:09;;;;;;;;;;;;;;;12.90;100.00;99662.69;5019208;28;20356;-79
2023/05/13 02:42:35;;;;;;;;;;;;;;;12.88;100.00;99657.53;5031463;28;20004;-80
2023/05/13 02:45:01;;;;;;;;;;;;;;;12.90;100.00;99660.03;5029684;28;20274;-79
2023/05/13 02:47:29;;;;;;;;;;;;;;;12.89;100.00;99664.50;5045919;28;19928;-79
2023/05/13 02:50:00;;;;;;;;;;;;;;;12.92;100.00;99676.59;5030001;28;20070;-82
2023/05/13 02:52:26;;;;;;;;;;;;;;;12.95;100.00;99679.78;5029966;28;19960;-81
2023/05/13 02:54:51;;;;;;;;;;;;;;;12.96;100.00;99680.63;5031008;28;19921;-80
2023/05/13 02:57:16;;;;;;;;;;;;;;;12.92;100.00;99674.78;5046263;28;20023;-80
2023/05/13 02:59:42;;;;;;;;;;;;;;;12.97;100.00;99677.78;5031557;28;19917;-79
2023/05/13 03:02:08;;;;;;;;;;;;;;;12.94;100.00;99671.97;5030230;28;19921;-82
2023/05/13 03:04:33;;;;;;;;;;;;;;;12.95;100.00;99686.88;5039642;28;19942;-79
2023/05/13 03:06:58;;;;;;;;;;;;;;;12.96;100.00;99681.41;5043136;28;19993;-81
2023/05/13 03:09:24;;;;;;;;;;;;;;;12.97;100.00;99684.91;5036170;28;20011;-79
2023/05/13 03:11:49;;;;;;;;;;;;;;;12.93;100.00;99672.97;5036720;28;20233;-80
2023/05/13 03:14:15;;;;;;;;;;;;;;;12.88;100.00;99677.91;5038316;28;19939;-82
2023/05/13 03:16:40;;;;;;;;;;;;;;;12.88;100.00;99677.91;5039280;28;20381;-81
2023/05/13 03:19:05;;;;;;;;;;;;;;;12.87;100.00;99676.22;5039528;28;19921;-78
2023/05/13 03:21:31;;;;;;;;;;;;;;;12.81;100.00;99676.84;5044476;28;19913;-79
2023/05/13 03:23:56;;;;;;;;;;;;;;;12.82;100.00;99679.34;5052091;28;19984;-80
2023/05/13 03:26:22;;;;;;;;;;;;;;;12.83;100.00;99675.72;5035871;28;20047;-79
2023/05/13 03:28:47;;;;;;;;;;;;;;;12.82;100.00;99683.81;5036450;28;19917;-79
2023/05/13 03:31:13;;;;;;;;;;;;;;;12.78;100.00;99678.00;5055680;28;19917;-83
2023/05/13 03:33:39;;;;;;;;;;;;;;;12.81;100.00;99687.44;5032661;28;19987;-81
2023/05/13 03:36:05;;;;;;;;;;;;;;;12.81;100.00;99687.44;5058328;28;19921;-83
2023/05/13 03:38:31;;;;;;;;;;;;;;;12.82;100.00;99691.75;5030120;28;20350;-82
2023/05/13 03:40:56;;;;;;;;;;;;;;;12.82;100.00;99697.03;5022281;28;19980;-82
2023/05/13 03:43:22;;;;;;;;;;;;;;;12.85;100.00;99694.91;5017726;28;19948;-82
2023/05/13 03:45:53;;;;;;;;;;;;;;;12.85;100.00;99696.72;5022957;28;19948;-82
2023/05/13 03:48:20;;;;;;;;;;;;;;;12.84;100.00;99695.09;5019483;28;20307;-81
2023/05/13 03:50:45;;;;;;;;;;;;;;;12.86;100.00;99703.69;5020119;28;19925;-81
2023/05/13 03:53:12;;;;;;;;;;;;;;;12.89;100.00;99698.09;5037906;28;19921;-81
2023/05/13 03:55:40;;;;;;;;;;;;;;;12.89;100.00;99692.81;5028820;28;19917;-80
2023/05/13 03:58:13;;;;;;;;;;;;;;;12.90;100.00;99697.91;5045755;28;19948;-82
2023/05/13 04:00:38;;;;;;;;;;;;;;;12.86;100.00;99695.75;5027890;28;19913;-81
2023/05/13 04:03:03;;;;;;;;;;;;;;;12.82;100.00;99700.53;5029064;28;20379;-82
2023/05/13 04:05:29;;;;;;;;;;;;;;;12.81;100.00;99703.31;5029858;28;19913;-82
2023/05/13 04:07:54;;;;;;;;;;;;;;;12.61;100.00;99698.19;5030315;28;19917;-81
2023/05/13 04:10:19;;;;;;;;;;;;;;;12.51;100.00;99696.59;5030410;28;19917;-82
2023/05/13 04:12:45;;;;;;;;;;;;;;;12.53;100.00;99700.78;5028274;28;19920;-81
2023/05/13 04:15:10;;;;;;;;;;;;;;;12.58;100.00;99702.97;5029815;28;19932;-83
2023/05/13 04:17:35;;;;;;;;;;;;;;;12.64;100.00;99702.34;5029911;28;19920;-82
2023/05/13 04:20:01;;;;;;;;;;;;;;;12.63;100.00;99706.81;5029160;28;20327;-81
2023/05/13 04:22:28;;;;;;;;;;;;;;;12.62;100.00;99710.44;5029729;28;19970;-82
2023/05/13 04:24:55;;;;;;;;;;;;;;;12.62;100.00;99720.19;5030018;28;20015;-81
2023/05/13 04:27:24;;;;;;;;;;;;;;;12.54;100.00;99720.16;5029739;28;19917;-79
2023/05/13 04:29:54;;;;;;;;;;;;;;;12.55;100.00;99721.78;5027139;28;19924;-80
2023/05/13 04:32:22;;;;;;;;;;;;;;;12.50;100.00;99721.41;5036639;28;19917;-80
2023/05/13 04:34:51;;;;;;;;;;;;;;;12.50;100.00;99722.25;5036336;28;19921;-79
2023/05/13 04:37:17;;;;;;;;;;;;;;;12.39;100.00;99729.56;5036740;28;19976;-79
2023/05/13 04:39:46;;;;;;;;;;;;;;;12.29;100.00;99730.47;5036814;28;20015;-81
2023/05/13 04:42:12;;;;;;;;;;;;;;;12.35;100.00;99728.22;5034009;28;20503;-81
2023/05/13 04:44:38;;;;;;;;;;;;;;;12.36;100.00;99736.00;5036337;28;19923;-79
2023/05/13 04:47:03;;;;;;;;;;;;;;;12.35;100.00;99742.28;5039006;28;20003;-80
2023/05/13 04:49:29;;;;;;;;;;;;;;;12.34;100.00;99735.31;5040260;28;20403;-81
2023/05/13 04:51:54;;;;;;;;;;;;;;;12.32;100.00;99739.91;5033428;28;20023;-80
2023/05/13 04:54:19;;;;;;;;;;;;;;;12.36;100.00;99730.72;5033365;28;19956;-80
2023/05/13 04:56:45;;;;;;;;;;;;;;;12.40;100.00;99734.72;5031430;28;20853;-79
2023/05/13 04:59:10;;;;;;;;;;;;;;;12.48;100.00;99733.97;5060961;28;19929;-80
2023/05/13 05:01:36;;;;;;;;;;;;;;;12.40;100.00;99744.47;5047361;28;20015;-80
2023/05/13 05:04:01;;;;;;;;;;;;;;;12.41;100.00;99744.34;5033042;28;19917;-76
2023/05/13 05:06:27;;;;;;;;;;;;;;;12.37;100.00;99742.94;5033105;28;20422;-78
2023/05/13 05:08:53;;;;;;;;;;;;;;;12.42;100.00;99745.16;5010970;28;19925;-80
2023/05/13 05:11:19;;;;;;;;;;;;;;;12.50;100.00;99748.72;5031637;28;19968;-80
2023/05/13 05:13:45;;;;;;;;;;;;;;;12.47;100.00;99741.09;5060376;28;19957;-80
2023/05/13 05:16:10;;;;;;;;;;;;;;;12.53;100.00;99747.59;5063397;28;19917;-80
2023/05/13 05:18:36;;;;;;;;;;;;;;;12.63;100.00;99754.47;5047736;28;20027;-78
2023/05/13 05:21:03;;;;;;;;;;;;;;;12.77;100.00;99749.63;5048544;28;19913;-80
2023/05/13 05:23:28;;;;;;;;;;;;;;;12.82;100.00;99748.19;5030743;28;19971;-81
2023/05/13 05:25:54;;;;;;;;;;;;;;;12.88;100.00;99754.69;5047512;28;19916;-80
2023/05/13 05:28:20;;;;;;;;;;;;;;;12.93;100.00;99755.06;5032847;28;20334;-81
2023/05/13 05:30:45;;;;;;;;;;;;;;;12.97;100.00;99761.72;5034669;28;20015;-81
2023/05/13 05:33:17;;;;;;;;;;;;;;;13.02;100.00;99754.13;5031314;28;19913;-82
2023/05/13 05:35:42;;;;;;;;;;;;;;;13.07;100.00;99757.19;5037075;28;19924;-80
2023/05/13 05:38:12;;;;;;;;;;;;;;;13.04;100.00;99758.31;5047766;28;19917;-81
2023/05/13 05:40:39;;;;;;;;;;;;;;;12.99;100.00;99765.06;5032128;28;19913;-81
2023/05/13 05:43:04;;;;;;;;;;;;;;;12.81;100.00;99766.88;5028082;28;19963;-80
2023/05/13 05:45:30;;;;;;;;;;;;;;;12.84;100.00;99761.28;5046894;28;19944;-80
2023/05/13 05:47:56;;;;;;;;;;;;;;;13.00;100.00;99766.72;5063767;28;20425;-79
2023/05/13 05:50:22;;;;;;;;;;;;;;;13.09;100.00;99773.75;5047618;28;19917;-81
2023/05/13 05:52:48;;;;;;;;;;;;;;;13.22;100.00;99771.56;5055711;28;20404;-79
2023/05/13 05:55:14;;;;;;;;;;;;;;;13.30;100.00;99774.28;5021711;28;20365;-81
2023/05/13 05:57:39;;;;;;;;;;;;;;;13.39;100.00;99768.03;5019265;28;20066;-80
2023/05/13 06:00:06;;;;;;;;;;;;;;;13.45;100.00;99771.88;5026647;28;20027;-81
2023/05/13 06:02:40;;;;;;;;;;;;;;;13.45;100.00;99762.13;5029407;28;19937;-80
2023/05/13 06:05:06;;;;;;;;;;;;;;;13.49;100.00;99758.16;5032294;28;19921;-81
2023/05/13 06:07:32;;;;;;;;;;;;;;;13.53;100.00;99764.81;5026665;28;19920;-82
2023/05/13 06:09:57;;;;;;;;;;;;;;;13.60;100.00;99762.38;5031183;28;20305;-80
2023/05/13 06:12:22;;;;;;;;;;;;;;;13.68;100.00;99772.19;5047187;28;20293;-80
2023/05/13 06:14:48;;;;;;;;;;;;;;;13.81;100.00;99772.59;5031009;28;19917;-80
2023/05/13 06:17:15;;;;;;;;;;;;;;;13.89;100.00;99775.28;5031436;28;19924;-80
2023/05/13 06:19:41;;;;;;;;;;;;;;;13.97;100.00;99787.75;5055052;28;19917;-80
2023/05/13 06:22:07;;;;;;;;;;;;;;;14.03;100.00;99781.81;5023797;28;20003;-81
2023/05/13 06:24:34;;;;;;;;;;;;;;;14.11;100.00;99785.34;5039490;28;19924;-81
2023/05/13 06:27:00;;;;;;;;;;;;;;;14.20;100.00;99794.16;5031475;28;19917;-81
2023/05/13 06:29:25;;;;;;;;;;;;;;;14.15;100.00;99791.16;5030158;28;19924;-78
2023/05/13 06:31:51;;;;;;;;;;;;;;;14.27;100.00;99790.69;5046414;28;19921;-82
2023/05/13 06:34:17;;;;;;;;;;;;;;;14.39;100.00;99799.22;5031840;28;19916;-81
2023/05/13 06:36:43;;;;;;;;;;;;;;;14.51;100.00;99799.78;5029765;28;19971;-82
2023/05/13 06:39:09;;;;;;;;;;;;;;;14.61;100.00;99795.13;5031812;28;19917;-82
2023/05/13 06:41:36;;;;;;;;;;;;;;;14.57;100.00;99796.47;5046600;28;20054;-80
2023/05/13 06:44:07;;;;;;;;;;;;;;;14.55;100.00;99795.81;5022567;28;19970;-83
2023/05/13 06:46:37;;;;;;;;;;;;;;;14.58;100.00;99803.44;5002237;28;20011;-83
2023/05/13 06:49:02;;;;;;;;;;;;;;;14.53;100.00;99800.44;5026230;28;20011;-81
2023/05/13 06:51:29;;;;;;;;;;;;;;;14.51;100.00;99799.78;5046599;28;20349;-82
2023/05/13 06:53:55;;;;;;;;;;;;;;;14.46;100.00;99805.56;5031167;28;19926;-83
2023/05/13 06:56:24;;;;;;;;;;;;;;;14.44;100.00;99809.38;5031064;28;19962;-81
2023/05/13 06:58:50;;;;;;;;;;;;;;;14.40;100.00;99803.56;5030945;28;20384;-82
2023/05/13 07:01:16;;;;;;;;;;;;;;;14.40;100.00;99808.03;5030789;28;19932;-81
2023/05/13 07:03:41;;;;;;;;;;;;;;;14.41;100.00;99813.19;5030323;28;19924;-81
2023/05/13 07:06:06;;;;;;;;;;;;;;;14.34;100.00;99817.44;5030358;28;20051;-82
2023/05/13 07:08:32;;;;;;;;;;;;;;;14.28;100.00;99813.59;5030091;28;19917;-78
2023/05/13 07:10:57;;;;;;;;;;;;;;;14.23;100.00;99815.91;5030517;28;19960;-81
2023/05/13 07:13:23;;;;;;;;;;;;;;;14.11;100.00;99811.03;5029736;28;20006;-81
2023/05/13 07:15:48;;;;;;;;;;;;;;;14.16;100.00;99814.88;5029950;28;20020;-81
2023/05/13 07:18:14;;;;;;;;;;;;;;;14.16;100.00;99809.56;5030541;28;19917;-81
2023/05/13 07:20:39;;;;;;;;;;;;;;;14.09;100.00;99811.19;5030735;28;20042;-80
2023/05/13 07:23:05;;;;;;;;;;;;;;;14.18;100.00;99812.91;5030519;28;19924;-78
2023/05/13 07:25:30;;;;;;;;;;;;;;;14.20;100.00;99826.00;5029957;28;19917;-78
2023/05/13 07:27:56;;;;;;;;;;;;;;;14.25;100.00;99818.41;5030677;28;19959;-80
2023/05/13 07:30:21;;;;;;;;;;;;;;;14.32;100.00;99822.06;5034639;28;20256;-79
2023/05/13 07:32:46;;;;;;;;;;;;;;;14.35;100.00;99827.06;5031951;28;20362;-81
2023/05/13 07:35:12;;;;;;;;;;;;;;;14.31;100.00;99829.19;5031133;28;19921;-82
2023/05/13 07:37:37;;;;;;;;;;;;;;;14.33;100.00;99821.91;5030124;28;19924;-78
2023/05/13 07:40:04;;;;;;;;;;;;;;;14.36;100.00;99826.09;5030255;28;20012;-82
2023/05/13 07:42:30;;;;;;;;;;;;;;;14.45;100.00;99829.63;5030681;28;20015;-84
2023/05/13 07:44:55;;;;;;;;;;;;;;;14.35;100.00;99825.25;5030805;28;20010;-81
2023/05/13 07:47:21;;;;;;;;;;;;;;;14.43;100.00;99826.31;5029845;28;20043;-80
2023/05/13 07:49:46;;;;;;;;;;;;;;;14.51;100.00;99828.97;5029643;28;20071;-80
2023/05/13 07:52:11;;;;;;;;;;;;;;;14.54;100.00;99818.03;5029891;28;20263;-78
2023/05/13 07:54:37;;;;;;;;;;;;;;;14.55;100.00;99817.88;5029346;28;20011;-78
2023/05/13 07:57:02;;;;;;;;;;;;;;;14.57;100.00;99809.75;5026092;28;19976;-79
2023/05/13 07:59:28;;;;;;;;;;;;;;;14.63;100.00;99815.25;5033770;28;20051;-77
2023/05/13 08:01:53;;;;;;;;;;;;;;;14.69;100.00;99816.41;5044078;28;19928;-80
2023/05/13 08:04:20;;;;;;;;;;;;;;;14.81;100.00;99815.13;5029800;28;19940;-79
2023/05/13 08:06:45;;;;;;;;;;;;;;;14.87;100.00;99813.63;5029774;28;19932;-86
2023/05/13 08:09:11;;;;;;;;;;;;;;;14.81;100.00;99825.75;5030035;28;20293;-81
2023/05/13 08:11:37;;;;;;;;;;;;;;;14.80;100.00;99821.41;5029717;28;19917;-79
2023/05/13 08:14:03;;;;;;;;;;;;;;;14.78;100.00;99820.78;5029450;28;19963;-80
2023/05/13 08:16:28;;;;;;;;;;;;;;;14.84;100.00;99830.75;5038318;28;19917;-79
2023/05/13 08:18:54;;;;;;;;;;;;;;;14.73;100.00;99825.72;5032132;28;19917;-81
2023/05/13 08:21:19;;;;;;;;;;;;;;;14.70;100.00;99823.41;5033909;28;19917;-78
2023/05/13 08:23:44;;;;;;;;;;;;;;;14.68;100.00;99823.56;5033616;28;19917;-77
2023/05/13 08:26:10;;;;;;;;;;;;;;;14.74;100.00;99822.91;5033746;28;19917;-81
2023/05/13 08:28:36;;;;;;;;;;;;;;;14.88;100.00;99825.91;5033230;28;20403;-81
2023/05/13 08:31:02;;;;;;;;;;;;;;;14.98;100.00;99827.44;5037272;28;19971;-82
2023/05/13 08:33:31;;;;;;;;;;;;;;;14.94;100.00;99826.09;5063654;28;19929;-81
2023/05/13 08:35:57;;;;;;;;;;;;;;;14.90;100.00;99835.41;5033666;28;19925;-79
2023/05/13 08:38:22;;;;;;;;;;;;;;;14.94;100.00;99819.94;5030795;28;19964;-82
2023/05/13 08:40:47;;;;;;;;;;;;;;;14.91;100.00;99821.09;5047985;28;19924;-85
2023/05/13 08:43:14;;;;;;;;;;;;;;;15.00;100.00;99829.94;5033538;28;19917;-86
2023/05/13 08:45:41;;;;;;;;;;;;;;;14.99;100.00;99815.81;5031440;28;19939;-84
2023/05/13 08:48:07;;;;;;;;;;;;;;;15.25;100.00;99823.63;5032286;28;20388;-84
2023/05/13 08:50:33;;;;;;;;;;;;;;;15.35;100.00;99823.47;5029115;28;19916;-84
2023/05/13 08:53:01;;;;;;;;;;;;;;;15.36;100.00;99814.50;5033569;28;20007;-85
2023/05/13 08:55:27;;;;;;;;;;;;;;;15.41;100.00;99820.13;5033133;28;19948;-90
2023/05/13 08:57:52;;;;;;;;;;;;;;;15.49;100.00;99825.47;5048992;28;19917;-90
2023/05/13 09:00:18;;;;;;;;;;;;;;;15.57;100.00;99828.97;5045440;28;19992;-88
2023/05/13 09:02:43;;;;;;;;;;;;;;;15.62;100.00;99825.78;5051596;28;19992;-88
2023/05/13 09:05:09;;;;;;;;;;;;;;;15.72;100.00;99823.81;5041614;28;19971;-91
2023/05/13 09:07:35;;;;;;;;;;;;;;;15.86;100.00;99817.75;5050732;28;19916;-88
2023/05/13 09:10:01;;;;;;;;;;;;;;;15.88;100.00;99821.09;5038248;28;19917;-80
2023/05/13 09:12:47;;;;;;;;;;;;;;;15.72;100.00;99818.47;5035215;28;20095;-83
2023/05/13 09:15:13;;;;;;;;;;;;;;;15.91;100.00;99815.41;5030447;28;20281;-85
2023/05/13 09:17:41;;;;;;;;;;;;;;;16.09;100.00;99817.03;5031205;28;19917;-85
2023/05/13 09:20:07;;;;;;;;;;;;;;;16.31;100.00;99816.28;5031138;28;20300;-84
2023/05/13 09:22:33;;;;;;;;;;;;;;;16.60;100.00;99816.53;5028650;28;19917;-88
2023/05/13 09:24:58;;;;;;;;;;;;;;;16.62;100.00;99818.97;5034955;28;19940;-89
2023/05/13 09:27:35;;;;;;;;;;;;;;;16.74;100.00;99817.59;5032288;28;20003;-84
2023/05/13 09:30:01;;;;;;;;;;;;;;;16.70;100.00;99816.28;5027811;28;19917;-86
2023/05/13 09:32:26;;;;;;;;;;;;;;;16.49;100.00;99819.53;5032718;28;19928;-87
2023/05/13 09:34:52;;;;;;;;;;;;;;;16.41;100.00;99816.91;5033079;28;20001;-86
2023/05/13 09:37:20;;;;;;;;;;;;;;;16.60;100.00;99824.50;5040355;28;20071;-87
2023/05/13 09:39:50;;;;;;;;;;;;;;;16.61;100.00;99823.47;5040057;28;19921;-88
2023/05/13 09:42:16;;;;;;;;;;;;;;;16.65;100.00;99824.81;5037658;28;19917;-86
2023/05/13 09:44:42;;;;;;;;;;;;;;;16.49;100.00;99830.19;5035218;28;19921;-86
2023/05/13 09:47:14;;;;;;;;;;;;;;;16.45;100.00;99828.88;5033350;28;19917;-86
2023/05/13 09:49:40;;;;;;;;;;;;;;;16.31;100.00;99826.94;5031690;28;20020;-86
2023/05/13 09:52:08;;;;;;;;;;;;;;;16.25;100.00;99822.31;5034090;28;19921;-86
2023/05/13 09:54:35;;;;;;;;;;;;;;;16.35;100.00;99814.94;5032086;28;19956;-85
2023/05/13 09:57:00;;;;;;;;;;;;;;;16.35;100.00;99822.94;5033763;28;20016;-83
2023/05/13 09:59:27;;;;;;;;;;;;;;;16.35;100.00;99822.94;5034452;28;19972;-86
2023/05/13 10:01:54;;;;;;;;;;;;;;;16.43;100.00;99820.25;5031960;28;20449;-87
2023/05/13 10:04:20;;;;;;;;;;;;;;;16.37;100.00;99815.59;5016331;28;19932;-84
2023/05/13 10:06:46;;;;;;;;;;;;;;;16.40;100.00;99812.59;5031224;28;19916;-84
2023/05/13 10:09:12;;;;;;;;;;;;;;;16.32;100.00;99812.59;5032291;28;19917;-87
2023/05/13 10:11:38;;;;;;;;;;;;;;;16.11;100.00;99815.88;5032129;28;19955;-84
2023/05/13 10:14:06;;;;;;;;;;;;;;;16.03;100.00;99812.38;5028002;28;19917;-83
2023/05/13 10:16:32;;;;;;;;;;;;;;;15.95;100.00;99811.44;5030850;28;20369;-84
2023/05/13 10:18:58;;;;;;;;;;;;;;;15.90;100.00;99807.63;5031857;28;20049;-84
2023/05/13 10:21:26;;;;;;;;;;;;;;;15.88;100.00;99805.13;5031616;28;20303;-86
2023/05/13 10:23:51;;;;;;;;;;;;;;;15.91;100.00;99804.78;5037153;28;20022;-87
2023/05/13 10:26:18;;;;;;;;;;;;;;;15.80;100.00;99806.97;5045755;28;19956;-86
2023/05/13 10:28:44;;;;;;;;;;;;;;;15.80;100.00;99799.81;5031773;28;20077;-87
2023/05/13 10:31:09;;;;;;;;;;;;;;;15.90;100.00;99800.44;5034921;28;19917;-90
2023/05/13 10:33:35;;;;;;;;;;;;;;;16.02;100.00;99797.44;5032572;28;19997;-86
2023/05/13 10:36:10;;;;;;;;;;;;;;;16.06;100.00;99793.44;5016267;28;19971;-81
2023/05/13 10:38:44;;;;;;;;;;;;;;;16.11;100.00;99793.75;5028330;28;19917;-82
2023/05/13 10:41:25;;;;;;;;;;;;;;;16.13;100.00;99786.41;5028767;28;20357;-83
2023/05/13 10:43:57;;;;;;;;;;;;;;;16.22;100.00;99788.03;5031367;28;19924;-92
2023/05/13 10:46:22;;;;;;;;;;;;;;;16.24;100.00;99789.53;5038720;28;20292;-85
2023/05/13 10:48:49;;;;;;;;;;;;;;;16.09;100.00;99785.09;5030900;28;19917;-84
2023/05/13 10:51:16;;;;;;;;;;;;;;;16.18;100.00;99794.72;5030364;28;19961;-86
2023/05/13 10:53:51;;;;;;;;;;;;;;;16.18;100.00;99787.56;5030521;28;19917;-86
2023/05/13 10:56:20;;;;;;;;;;;;;;;16.21;100.00;99784.53;5041061;28;19921;-81
2023/05/13 10:59:04;;;;;;;;;;;;;;;16.29;100.00;99778.34;5031048;28;20405;-83
2023/05/13 11:01:30;;;;;;;;;;;;;;;16.19;100.00;99780.41;5030158;28;19913;-82
2023/05/13 11:03:56;;;;;;;;;;;;;;;16.20;100.00;99766.91;5031953;28;19944;-83
2023/05/13 11:06:28;;;;;;;;;;;;;;;16.16;100.00;99756.78;5030971;28;19913;-83
2023/05/13 11:08:54;;;;;;;;;;;;;;;16.22;100.00;99764.06;5031196;28;20468;-82
2023/05/13 11:11:19;;;;;;;;;;;;;;;16.18;100.00;99762.75;5031270;28;19948;-83
2023/05/13 11:13:45;;;;;;;;;;;;;;;16.10;100.00;99765.44;5031841;28;20274;-83
2023/05/13 11:16:11;;;;;;;;;;;;;;;16.19;100.00;99761.75;5030385;28;19916;-82
2023/05/13 11:18:37;;;;;;;;;;;;;;;16.24;100.00;99759.41;5031626;28;19921;-83
2023/05/13 11:21:03;;;;;;;;;;;;;;;16.40;100.00;99751.31;5042226;28;19917;-85
2023/05/13 11:23:31;;;;;;;;;;;;;;;16.50;100.00;99746.59;5046325;28;19996;-84
2023/05/13 11:26:15;;;;;;;;;;;;;;;16.55;100.00;99756.75;5036800;28;20377;-82
2023/05/13 11:28:57;;;;;;;;;;;;;;;16.60;100.00;99751.75;5028187;28;19928;-83
2023/05/13 11:31:23;;;;;;;;;;;;;;;16.67;100.00;99758.03;5029741;28;19924;-83
2023/05/13 11:34:08;;;;;;;;;;;;;;;16.69;100.00;99740.84;5038157;28;19917;-82
2023/05/13 11:36:35;;;;;;;;;;;;;;;16.71;100.00;99733.50;5027897;28;19921;-83
2023/05/13 11:39:12;;;;;;;;;;;;;;;16.84;100.00;99737.41;5030466;28;19917;-83
2023/05/13 11:41:39;;;;;;;;;;;;;;;16.89;100.00;99735.03;5029641;28;19986;-82
2023/05/13 11:44:05;;;;;;;;;;;;;;;16.97;100.00;99726.97;5028105;28;19917;-84
2023/05/13 11:46:31;;;;;;;;;;;;;;;17.08;100.00;99739.88;5029110;28;19917;-83
2023/05/13 11:48:56;;;;;;;;;;;;;;;17.17;100.00;99730.78;5030075;28;20380;-85
2023/05/13 11:51:22;;;;;;;;;;;;;;;17.20;100.00;99733.09;5038122;28;19962;-84
2023/05/13 11:53:47;;;;;;;;;;;;;;;17.24;100.00;99723.75;5030378;28;19925;-83
2023/05/13 11:56:12;;;;;;;;;;;;;;;17.32;100.00;99726.31;5030525;28;19917;-84
2023/05/13 11:58:38;;;;;;;;;;;;;;;17.34;100.00;99713.63;5029411;28;19917;-83
2023/05/13 12:01:03;;;;;;;;;;;;;;;17.43;100.00;99717.88;5032034;28;20324;-81
2023/05/13 12:03:28;;;;;;;;;;;;;;;17.51;100.00;99715.09;5037921;28;20340;-81
2023/05/13 12:06:04;;;;;;;;;;;;;;;17.52;100.00;99716.78;5029947;28;19917;-81
2023/05/13 12:08:30;;;;;;;;;;;;;;;17.56;100.00;99712.72;5029988;28;20466;-80
2023/05/13 12:10:58;;;;;;;;;;;;;;;17.60;100.00;99713.22;5029268;28;19917;-80
2023/05/13 12:13:23;;;;;;;;;;;;;;;17.59;100.00;99717.69;5026566;28;19913;-81
2023/05/13 12:15:49;;;;;;;;;;;;;;;17.47;100.00;99721.84;5029053;28;19923;-81
2023/05/13 12:18:14;;;;;;;;;;;;;;;17.36;100.00;99711.63;5028756;28;20400;-81
2023/05/13 12:20:40;;;;;;;;;;;;;;;17.47;97.36;99713.84;5028659;28;19917;-81
2023/05/13 12:23:05;;;;;;;;;;;;;;;17.75;98.87;99705.19;5029190;28;19917;-82
2023/05/13 12:25:30;;;;;;;;;;;;;;;18.02;95.57;99702.69;5033663;28;19917;-82
2023/05/13 12:27:56;;;;;;;;;;;;;;;18.10;96.15;99704.41;5029009;28;20245;-81
2023/05/13 12:30:21;;;;;;;;;;;;;;;18.19;94.13;99702.47;5043361;28;19917;-82
2023/05/13 12:32:47;;;;;;;;;;;;;;;18.52;92.28;99698.31;5029261;28;20331;-81